Portada
METAR-TAF:

METAR-TAF

Aeroports :

Franklin County, Vermont, Estats Units d'Amèrica

latitud: 44-56-25N, longitud: 073-05-51W, altitud: 69 m

Observació

L'informe es va fer fa 34 minuts, a les 19:55 UTC
Vent 3 kt del Sud
Temperatura 5°C
Humitat 52%
Pressió 1007 hPa
Visibilitat: 16.1 km
Núvols disperses a una alçada de 8000 ft
Núvols disperses a una alçada de 9000 ft
Cel cobert a una alçada de 11000 ft

METAR: KFSO 241955Z AUTO 17003KT 10SM SCT080 SCT090 OVC110 05/M04 A2975 RMK AO2 T00521036

Hora: 15:29 (20:29 UTC)


TAF: manca

Observacions i pronòstics meteorològics de més de 4000 aeroports (METAR i TAF).

Les estacions disponibles són els punts grocs i vermells al mapa.

Posi el ratolí al punt desitjat per veure el nom de l'estació.

Feu clic per veure les observacions i els pronòstics meteorològics.

Per canviar el mapa: feu clic els botons verds amb una creu de color negre per apropar; al botó verd amb un guió per allunyar la imatge; o en les fletxes verdes per a mapes adjacents.


METAR-TAF: